Time;durP1;ratioP1;P1;durP2;ratioP2;P2;SDS_P1;SDS_P2;PMS_P1;PMS_P2;Temp;Humidity;BMP_temperature;BMP_pressure;BME280_temperature;BME280_humidity;BME280_pressure;Samples;Min_cycle;Max_cycle;Signal;HPM_P1;HPM_P2
2022/09/26 00:00:30;;;;;;;7.93;4.38;;;;;;;14.17;53.84;99620.50;3145438;28;20052;-61
2022/09/26 00:02:02;;;;;;;6.38;4.43;;;;;;;14.12;54.22;99623.44;3145233;28;20048;-61
2022/09/26 00:03:33;;;;;;;9.48;4.97;;;;;;;14.02;54.18;99611.81;3145044;28;20419;-61
2022/09/26 00:05:06;;;;;;;6.78;4.63;;;;;;;14.11;53.89;99619.13;3145282;28;20055;-61
2022/09/26 00:06:38;;;;;;;7.60;4.90;;;;;;;14.11;54.15;99617.34;3145167;28;20508;-61
2022/09/26 00:08:10;;;;;;;8.65;5.35;;;;;;;14.12;53.78;99618.19;3144983;28;20056;-61
2022/09/26 00:09:42;;;;;;;7.13;4.43;;;;;;;14.15;53.84;99609.31;3145322;28;20458;-61
2022/09/26 00:11:15;;;;;;;9.25;4.93;;;;;;;14.15;53.80;99606.69;3145120;28;20959;-61
2022/09/26 00:12:47;;;;;;;8.05;4.47;;;;;;;14.17;53.51;99608.28;3145028;28;20131;-61
2022/09/26 00:14:21;;;;;;;5.88;4.05;;;;;;;14.18;53.52;99609.94;3145278;28;20049;-61
2022/09/26 00:15:55;;;;;;;7.95;4.32;;;;;;;14.11;53.87;99606.03;3145051;28;20100;-62
2022/09/26 00:17:27;;;;;;;6.47;4.32;;;;;;;14.09;53.85;99606.13;3145303;28;20049;-62
2022/09/26 00:18:59;;;;;;;7.55;4.72;;;;;;;14.14;53.56;99607.59;3145215;28;20048;-62
2022/09/26 00:20:31;;;;;;;7.03;4.43;;;;;;;14.12;53.89;99605.09;3145044;28;20048;-62
2022/09/26 00:22:02;;;;;;;5.63;3.70;;;;;;;14.09;53.42;99611.34;3145069;28;20044;-61
2022/09/26 00:23:34;;;;;;;6.93;4.43;;;;;;;14.09;53.46;99605.28;3148003;28;20040;-62
2022/09/26 00:25:07;;;;;;;9.40;4.35;;;;;;;14.07;53.31;99600.13;3154706;28;20055;-60
2022/09/26 00:26:39;;;;;;;8.60;4.00;;;;;;;14.08;53.39;99603.63;3145224;28;20053;-61
2022/09/26 00:28:10;;;;;;;6.63;4.13;;;;;;;14.08;53.27;99599.22;3145012;28;20059;-61
2022/09/26 00:29:42;;;;;;;7.13;4.07;;;;;;;14.08;53.10;99603.63;3145299;28;20091;-61
2022/09/26 00:31:18;;;;;;;7.32;4.32;;;;;;;14.07;53.12;99597.50;3144965;28;20158;-63
2022/09/26 00:32:50;;;;;;;6.32;3.65;;;;;;;14.09;53.26;99605.28;3144865;28;20123;-61
2022/09/26 00:34:22;;;;;;;6.53;4.40;;;;;;;14.08;53.01;99599.22;3144889;28;20048;-62
2022/09/26 00:35:54;;;;;;;8.73;4.15;;;;;;;14.08;52.99;99593.16;3140331;28;20101;-61
2022/09/26 00:37:26;;;;;;;5.95;4.28;;;;;;;14.08;53.16;99599.22;3144900;28;20055;-61
2022/09/26 00:38:57;;;;;;;6.72;3.97;;;;;;;14.10;52.94;99596.47;3144974;28;20053;-62
2022/09/26 00:40:29;;;;;;;7.53;4.43;;;;;;;14.02;53.01;99577.78;3144719;28;20052;-61
2022/09/26 00:42:01;;;;;;;7.82;4.07;;;;;;;14.10;53.23;99592.09;3144811;28;20533;-61
2022/09/26 00:43:34;;;;;;;5.40;3.78;;;;;;;14.09;53.19;99587.78;3144944;28;20143;-61
2022/09/26 00:45:08;;;;;;;7.88;4.05;;;;;;;14.10;53.31;99588.63;3144995;28;20105;-61
2022/09/26 00:46:43;;;;;;;5.82;3.90;;;;;;;14.10;53.18;99588.63;3145087;28;20048;-61
2022/09/26 00:48:16;;;;;;;6.00;4.00;;;;;;;14.12;53.16;99592.00;3144859;28;20160;-61
2022/09/26 00:49:49;;;;;;;7.85;4.28;;;;;;;14.13;52.90;99591.06;3144940;28;20067;-61
2022/09/26 00:51:22;;;;;;;5.93;3.72;;;;;;;14.14;52.99;99591.88;3144906;28;20048;-61
2022/09/26 00:52:57;;;;;;;9.02;5.15;;;;;;;14.13;52.93;99583.19;3144980;28;20045;-61
2022/09/26 00:54:31;;;;;;;6.32;3.75;;;;;;;14.13;53.31;99583.19;3145105;28;20048;-61
2022/09/26 00:56:07;;;;;;;9.85;4.97;;;;;;;14.13;53.06;99592.84;3144686;28;20051;-62
2022/09/26 00:57:45;;;;;;;7.55;4.63;;;;;;;14.11;53.01;99585.09;3145054;28;20065;-61
2022/09/26 00:59:22;;;;;;;11.00;4.30;;;;;;;14.03;53.03;99569.84;3145091;28;20144;-63
2022/09/26 01:00:55;;;;;;;6.78;3.97;;;;;;;14.14;53.28;99587.53;3145047;28;20127;-62
2022/09/26 01:02:28;;;;;;;8.38;5.47;;;;;;;14.15;53.09;99588.34;3132471;28;20053;-61
2022/09/26 01:04:02;;;;;;;6.78;4.03;;;;;;;14.12;52.89;99578.91;3143915;28;20053;-61
2022/09/26 01:05:36;;;;;;;11.48;4.90;;;;;;;14.09;53.19;99590.41;3145015;28;20087;-61
2022/09/26 01:07:14;;;;;;;9.18;4.20;;;;;;;14.06;53.40;99584.53;3144604;28;20053;-62
2022/09/26 01:08:53;;;;;;;9.95;4.38;;;;;;;14.01;53.53;99587.44;3144560;28;20484;-61
2022/09/26 01:10:25;;;;;;;9.95;4.07;;;;;;;13.99;53.23;99583.22;3144809;28;20054;-61
2022/09/26 01:12:00;;;;;;;6.93;4.47;;;;;;;13.98;53.10;99582.38;3144784;28;20072;-61
2022/09/26 01:13:35;;;;;;;8.52;3.92;;;;;;;13.95;53.64;99577.34;3144877;28;20098;-61
2022/09/26 01:15:08;;;;;;;6.22;4.00;;;;;;;13.88;53.83;99571.66;3144771;28;20056;-61
2022/09/26 01:16:46;;;;;;;;;;;;;;;13.79;53.74;99566.16;3145029;28;20056;-61
2022/09/26 01:18:19;;;;;;;6.32;3.83;;;;;;;13.80;53.84;99578.31;3135679;28;19931;-61
2022/09/26 01:20:05;;;;;;;5.55;3.42;;;;;;;13.72;54.16;99575.31;3146332;28;20048;-61
2022/09/26 01:22:07;;;;;;;7.97;4.20;;;;;;;13.65;54.19;99586.16;3144949;28;20133;-61
2022/09/26 01:24:14;;;;;;;8.57;4.00;;;;;;;13.62;54.18;99581.13;3144709;28;20040;-61
2022/09/26 01:26:05;;;;;;;7.70;3.70;;;;;;;13.61;54.30;99581.22;3144996;28;20059;-61
2022/09/26 01:27:47;;;;;;;9.77;4.00;;;;;;;13.63;54.33;99582.78;3144804;28;20060;-61
2022/09/26 01:30:05;;;;;;;9.75;3.45;;;;;;;13.64;54.38;99583.66;3144333;28;20075;-61
2022/09/26 01:32:47;;;;;;;9.95;3.67;;;;;;;13.65;54.04;99577.47;3141228;28;20445;-61
2022/09/26 01:33:52;;;;;;;15.70;5.15;;;;;;;13.64;53.99;99586.28;3138176;28;20047;-61
2022/09/26 01:35:40;;;;;;;8.02;3.97;;;;;;;13.66;54.41;99581.75;3145692;28;20044;-61
2022/09/26 01:37:21;;;;;;;5.90;3.80;;;;;;;13.67;54.21;99585.25;3147124;28;20056;-61
2022/09/26 01:39:06;;;;;;;6.57;4.00;;;;;;;13.67;54.39;99587.88;3146829;28;20055;-62
2022/09/26 01:40:45;;;;;;;8.10;3.88;;;;;;;13.67;54.51;99582.63;3147033;28;20501;-61
2022/09/26 01:42:27;;;;;;;8.70;4.22;;;;;;;13.66;54.27;99597.47;3147022;28;20056;-61
2022/09/26 01:44:09;;;;;;;6.95;3.83;;;;;;;13.65;54.49;99604.47;3146926;28;20109;-61
2022/09/26 01:45:51;;;;;;;5.85;3.80;;;;;;;13.65;54.53;99609.72;3146433;28;20051;-61
2022/09/26 01:47:27;;;;;;;9.18;4.30;;;;;;;13.65;54.27;99607.09;3147023;28;20079;-61
2022/09/26 01:49:08;;;;;;;8.38;4.57;;;;;;;13.60;54.62;99598.69;3147198;28;20121;-61
2022/09/26 01:50:45;;;;;;;6.05;3.97;;;;;;;13.64;54.36;99604.59;3146982;28;20580;-61
2022/09/26 01:52:24;;;;;;;6.28;3.92;;;;;;;13.61;54.32;99600.38;3134541;28;20067;-61
2022/09/26 01:54:01;;;;;;;6.65;3.67;;;;;;;13.60;54.53;99609.13;3134527;28;20453;-62
2022/09/26 01:55:38;;;;;;;6.00;3.67;;;;;;;13.58;54.77;99597.94;3146158;28;20064;-61
2022/09/26 01:57:17;;;;;;;9.57;4.05;;;;;;;13.53;54.60;99596.53;3146910;28;20044;-61
2022/09/26 01:58:53;;;;;;;6.88;4.10;;;;;;;13.56;54.93;99612.88;3146801;28;20052;-62
2022/09/26 02:00:25;;;;;;;5.90;3.75;;;;;;;13.55;54.98;99605.97;3146789;28;20053;-61
2022/09/26 02:02:03;;;;;;;8.20;3.85;;;;;;;13.58;55.10;99615.44;3146810;28;20414;-61
2022/09/26 02:03:38;;;;;;;6.75;4.40;;;;;;;13.56;54.83;99615.50;3146826;28;20056;-61
2022/09/26 02:05:16;;;;;;;6.22;3.47;;;;;;;13.57;55.00;99608.50;3146597;28;20052;-62
2022/09/26 02:06:52;;;;;;;10.02;4.82;;;;;;;13.57;54.99;99606.72;3146541;28;20422;-61
2022/09/26 02:08:30;;;;;;;7.10;3.97;;;;;;;13.58;54.70;99604.97;3146584;28;20060;-61
2022/09/26 02:10:09;;;;;;;8.70;3.90;;;;;;;13.57;54.79;99609.31;3146770;28;20048;-61
2022/09/26 02:11:45;;;;;;;7.38;3.90;;;;;;;13.56;55.02;99606.81;3146687;28;20055;-61
2022/09/26 02:13:21;;;;;;;5.35;3.88;;;;;;;13.56;54.61;99610.28;3146502;28;20044;-62
2022/09/26 02:14:57;;;;;;;6.28;3.65;;;;;;;13.57;54.50;99600.63;3146544;28;20506;-61
2022/09/26 02:16:34;;;;;;;5.68;3.58;;;;;;;13.56;54.74;99601.59;3150993;28;20070;-61
2022/09/26 02:18:15;;;;;;;6.63;3.50;;;;;;;13.56;54.68;99598.97;3146523;28;20426;-61
2022/09/26 02:19:54;;;;;;;11.02;4.38;;;;;;;13.54;54.94;99593.81;3146610;28;20048;-61
2022/09/26 02:21:26;;;;;;;8.98;4.43;;;;;;;13.52;54.95;99598.31;3146663;28;20068;-61
2022/09/26 02:23:02;;;;;;;9.10;3.85;;;;;;;13.48;55.12;99598.59;3146821;28;20044;-61
2022/09/26 02:24:34;;;;;;;9.48;3.60;;;;;;;13.39;54.97;99600.81;3146729;28;20045;-61
2022/09/26 02:26:07;;;;;;;8.85;3.45;;;;;;;13.31;55.23;99604.81;3146508;28;20457;-61
2022/09/26 02:27:37;;;;;;;5.00;3.58;;;;;;;13.27;55.20;99604.16;3146511;28;20044;-61
2022/09/26 02:29:12;;;;;;;7.90;4.07;;;;;;;13.23;55.58;99600.03;3146349;28;20468;-61
2022/09/26 02:30:45;;;;;;;6.55;3.72;;;;;;;13.20;55.65;99597.59;3146552;28;20418;-61
2022/09/26 02:32:18;;;;;;;;;;;;;;;13.17;55.67;99600.41;3146891;28;20469;-61
2022/09/26 02:33:53;;;;;;;8.37;4.73;;;;;;;13.16;55.33;99601.31;3146494;28;20358;-61
2022/09/26 02:37:21;;;;;;;7.80;3.83;;;;;;;13.16;55.54;99596.06;3130822;28;20056;-60
2022/09/26 02:38:53;;;;;;;;;;;;;;;13.15;55.34;99594.41;3146791;28;20441;-61
2022/09/26 02:40:35;;;;;;;9.07;4.20;;;;;;;13.17;55.55;99589.94;3146269;28;19920;-61
2022/09/26 02:42:20;;;;;;;10.40;4.47;;;;;;;13.18;55.24;99596.84;3146278;28;20149;-61
2022/09/26 02:44:10;;;;;;;9.15;4.18;;;;;;;13.17;55.45;99592.56;3146169;28;20096;-61
2022/09/26 02:45:47;;;;;;;7.25;4.63;;;;;;;13.18;55.29;99589.00;3146503;28;20127;-61
2022/09/26 02:47:38;;;;;;;7.15;4.50;;;;;;;13.18;55.37;99581.16;3145256;28;20131;-61
2022/09/26 02:49:27;;;;;;;8.95;4.03;;;;;;;13.17;55.32;99588.16;3146141;28;20075;-61
2022/09/26 02:51:20;;;;;;;6.80;4.32;;;;;;;13.16;55.36;99585.63;3146211;28;20489;-61
2022/09/26 02:53:06;;;;;;;7.80;4.20;;;;;;;13.15;55.34;99597.03;3146257;28;20139;-61
2022/09/26 02:54:46;;;;;;;14.82;4.45;;;;;;;13.14;55.67;99590.13;3146122;28;20049;-61
2022/09/26 02:56:26;;;;;;;11.82;4.25;;;;;;;13.13;55.36;99591.91;3146172;28;20146;-61
2022/09/26 02:58:09;;;;;;;6.82;4.38;;;;;;;13.02;55.43;99569.94;3146226;28;20117;-61
2022/09/26 02:59:49;;;;;;;8.73;4.38;;;;;;;13.10;55.35;99591.22;3146136;28;20055;-61
2022/09/26 03:01:30;;;;;;;7.60;4.35;;;;;;;13.08;55.61;99591.31;3145803;28;20493;-61
2022/09/26 03:03:06;;;;;;;7.38;4.03;;;;;;;13.06;55.57;99587.94;3146146;28;20048;-61
2022/09/26 03:04:47;;;;;;;11.65;4.93;;;;;;;13.08;55.54;99591.31;3146101;28;20529;-61
2022/09/26 03:06:25;;;;;;;12.63;4.82;;;;;;;13.07;55.58;99591.41;3146175;28;20048;-61
2022/09/26 03:08:01;;;;;;;9.70;5.28;;;;;;;13.06;55.54;99584.50;3145732;28;20060;-61
2022/09/26 03:09:35;;;;;;;16.48;5.32;;;;;;;13.04;55.67;99586.34;3145969;28;20129;-61
2022/09/26 03:11:11;;;;;;;7.20;4.57;;;;;;;13.02;55.96;99583.84;3146249;28;20063;-61
2022/09/26 03:12:45;;;;;;;6.72;4.35;;;;;;;12.98;56.02;99583.19;3152355;28;20377;-61
2022/09/26 03:14:21;;;;;;;7.05;4.00;;;;;;;12.98;55.70;99583.19;3146397;28;20580;-61
2022/09/26 03:15:56;;;;;;;10.82;4.70;;;;;;;12.97;56.14;99578.03;3145821;28;20048;-61
2022/09/26 03:17:29;;;;;;;8.32;4.57;;;;;;;12.94;56.06;99576.44;3145731;28;20049;-61
2022/09/26 03:19:06;;;;;;;8.95;4.53;;;;;;;12.89;56.41;99578.47;3145529;28;20044;-61
2022/09/26 03:20:40;;;;;;;8.48;4.20;;;;;;;12.84;56.38;99579.69;3145873;28;20044;-61
2022/09/26 03:22:14;;;;;;;7.25;4.47;;;;;;;12.80;56.33;99575.56;3145682;28;20528;-61
2022/09/26 03:23:46;;;;;;;9.60;4.50;;;;;;;12.76;56.77;99574.91;3145159;28;20059;-61
2022/09/26 03:25:22;;;;;;;9.30;4.63;;;;;;;12.65;56.61;99564.22;3145838;28;20113;-61
2022/09/26 03:26:54;;;;;;;13.05;4.55;;;;;;;12.68;56.77;99575.31;3145968;28;20482;-61
2022/09/26 03:28:26;;;;;;;9.13;4.95;;;;;;;12.66;56.56;99571.97;3145697;28;20201;-61
2022/09/26 03:29:59;;;;;;;13.15;4.68;;;;;;;12.65;56.68;99569.44;3145767;28;20055;-61
2022/09/26 03:31:30;;;;;;;10.95;5.10;;;;;;;12.63;57.08;99568.69;3145631;28;20168;-61
2022/09/26 03:33:03;;;;;;;7.95;5.13;;;;;;;12.64;57.13;99567.78;3145496;28;20523;-61
2022/09/26 03:34:37;;;;;;;8.63;4.93;;;;;;;12.63;56.77;99560.84;3145635;28;20052;-61
2022/09/26 03:36:11;;;;;;;9.32;4.93;;;;;;;12.64;57.12;99559.94;3145465;28;20053;-61
2022/09/26 03:37:43;;;;;;;10.48;4.30;;;;;;;12.65;56.70;99562.44;3145618;28;20044;-61
2022/09/26 03:39:15;;;;;;;10.68;4.75;;;;;;;12.67;56.86;99562.38;3145380;28;20513;-61
2022/09/26 03:40:46;;;;;;;8.23;4.97;;;;;;;12.68;56.79;99564.88;3145451;28;20045;-61
2022/09/26 03:42:17;;;;;;;7.15;4.80;;;;;;;12.69;56.72;99563.13;3145478;28;20052;-61
2022/09/26 03:43:49;;;;;;;7.32;4.50;;;;;;;12.69;56.69;99550.06;3145689;28;20520;-61
2022/09/26 03:45:21;;;;;;;8.80;4.85;;;;;;;12.71;56.81;99550.78;3145327;28;20055;-61
2022/09/26 03:46:53;;;;;;;7.65;4.57;;;;;;;12.70;57.07;99549.13;3145389;28;20055;-61
2022/09/26 03:48:24;;;;;;;10.55;4.88;;;;;;;12.71;56.73;99549.00;3145224;28;20087;-61
2022/09/26 03:49:57;;;;;;;8.30;5.00;;;;;;;12.70;57.06;99536.91;3135326;28;20052;-60
2022/09/26 03:51:30;;;;;;;10.57;4.72;;;;;;;12.72;56.84;99553.34;3135331;28;20048;-61
2022/09/26 03:53:02;;;;;;;;;;;;;;;12.70;57.20;99549.97;3135861;28;20109;-60
2022/09/26 03:54:34;;;;;;;9.82;5.28;;;;;;;12.72;56.92;99544.66;3135435;28;19928;-61
2022/09/26 03:56:08;;;;;;;8.00;5.13;;;;;;;12.71;57.25;99545.56;3136414;28;20204;-61
2022/09/26 03:57:41;;;;;;;8.93;5.03;;;;;;;12.72;57.29;99537.66;3135900;28;20048;-61
2022/09/26 03:59:12;;;;;;;11.18;5.53;;;;;;;12.74;57.04;99535.78;3136663;28;20078;-61
2022/09/26 04:00:44;;;;;;;17.05;5.95;;;;;;;12.74;57.18;99527.94;3136056;28;20239;-61
2022/09/26 04:02:16;;;;;;;13.20;5.05;;;;;;;12.74;57.33;99533.16;3133676;28;20155;-61
2022/09/26 04:03:50;;;;;;;9.63;5.30;;;;;;;12.71;57.01;99535.13;3135377;28;20468;-61
2022/09/26 04:05:22;;;;;;;8.10;4.85;;;;;;;12.69;57.17;99530.00;3135272;28;20056;-61
2022/09/26 04:06:56;;;;;;;11.90;5.50;;;;;;;12.70;57.25;99529.06;3135664;28;20106;-61
2022/09/26 04:08:29;;;;;;;8.93;5.38;;;;;;;12.70;57.13;99528.22;3137843;28;20053;-61
2022/09/26 04:10:01;;;;;;;12.63;5.25;;;;;;;12.68;57.50;99524.84;3143849;28;20155;-61
2022/09/26 04:11:33;;;;;;;10.23;5.67;;;;;;;12.67;57.27;99529.25;3136451;28;20082;-62
2022/09/26 04:13:05;;;;;;;15.63;6.25;;;;;;;12.67;57.23;99534.47;3135909;28;20102;-60
2022/09/26 04:14:37;;;;;;;9.27;5.43;;;;;;;12.68;57.31;99540.53;3135841;28;20091;-61
2022/09/26 04:16:10;;;;;;;10.32;5.00;;;;;;;12.68;57.46;99543.13;3135661;28;20113;-61
2022/09/26 04:17:42;;;;;;;17.35;5.18;;;;;;;12.62;57.36;99533.03;3135451;28;20091;-58
2022/09/26 04:19:15;;;;;;;12.55;5.68;;;;;;;12.58;57.54;99529.78;3135124;28;20086;-59
2022/09/26 04:20:47;;;;;;;15.30;5.63;;;;;;;12.60;57.38;99533.16;3135316;28;20540;-58
2022/09/26 04:22:21;;;;;;;17.10;6.72;;;;;;;12.56;57.94;99544.69;3135191;28;20148;-61
2022/09/26 04:23:53;;;;;;;;;;;;;;;12.46;58.09;99536.53;3135406;28;20048;-60
2022/09/26 04:25:25;;;;;;;16.15;6.53;;;;;;;12.42;57.94;99532.44;3136063;28;20081;-60
2022/09/26 04:26:56;;;;;;;19.30;6.47;;;;;;;12.39;58.16;99535.19;3135752;28;20250;-59
2022/09/26 04:28:29;;;;;;;18.92;6.30;;;;;;;12.36;58.67;99530.13;3136122;28;20052;-59
2022/09/26 04:30:01;;;;;;;20.02;6.35;;;;;;;12.36;58.61;99535.38;3135017;28;20893;-59
2022/09/26 04:31:35;;;;;;;14.35;6.15;;;;;;;12.37;58.60;99534.47;3135831;28;20056;-60
2022/09/26 04:33:07;;;;;;;22.20;7.38;;;;;;;12.38;58.68;99548.34;3135309;28;20052;-61
2022/09/26 04:34:39;;;;;;;13.65;6.15;;;;;;;12.40;58.65;99547.34;3134459;28;20071;-60
2022/09/26 04:36:13;;;;;;;15.85;5.85;;;;;;;12.42;58.75;99548.09;3134619;28;20600;-60
2022/09/26 04:37:46;;;;;;;13.68;6.15;;;;;;;12.45;58.56;99541.84;3135126;28;20056;-60
2022/09/26 04:39:19;;;;;;;19.05;6.88;;;;;;;12.43;58.77;99539.31;3135105;28;20071;-60
2022/09/26 04:40:51;;;;;;;29.60;8.20;;;;;;;12.50;58.46;99552.88;3135241;28;20117;-58
2022/09/26 04:42:24;;;;;;;32.45;7.53;;;;;;;12.51;58.53;99558.03;3134730;28;20088;-58
2022/09/26 04:43:57;;;;;;;25.17;7.35;;;;;;;12.52;58.70;99548.41;3134972;28;20505;-59
2022/09/26 04:45:29;;;;;;;28.23;8.77;;;;;;;12.53;58.58;99545.69;3135209;28;20485;-58
2022/09/26 04:47:04;;;;;;;17.95;6.25;;;;;;;12.56;58.65;99549.91;3135168;28;20280;-62
2022/09/26 04:48:36;;;;;;;24.38;6.38;;;;;;;12.57;58.86;99553.34;3135436;28;20048;-60
2022/09/26 04:50:09;;;;;;;36.55;7.70;;;;;;;12.61;58.78;99554.88;3135317;28;20530;-60
2022/09/26 04:51:44;;;;;;;17.40;6.93;;;;;;;12.64;58.70;99562.53;3135114;28;20060;-57
2022/09/26 04:53:18;;;;;;;15.85;6.97;;;;;;;12.66;58.49;99558.91;3134461;28;20052;-60
2022/09/26 04:54:50;;;;;;;31.05;7.95;;;;;;;12.67;58.47;99550.13;3135044;28;20147;-60
2022/09/26 04:56:24;;;;;;;20.70;7.88;;;;;;;12.69;58.60;99544.84;3135036;28;20595;-59
2022/09/26 04:57:56;;;;;;;15.30;6.97;;;;;;;12.73;58.52;99544.56;3134937;28;20307;-60
2022/09/26 04:59:28;;;;;;;20.08;6.85;;;;;;;12.75;58.43;99547.94;3135969;28;20063;-60
2022/09/26 05:01:02;;;;;;;22.77;6.93;;;;;;;12.79;58.44;99545.13;3136079;28;20087;-60
2022/09/26 05:02:34;;;;;;;15.57;6.85;;;;;;;12.80;58.47;99545.03;3135179;28;20056;-60
2022/09/26 05:04:08;;;;;;;16.52;6.38;;;;;;;12.82;58.40;99550.19;3134825;28;20056;-60
2022/09/26 05:05:40;;;;;;;21.05;6.97;;;;;;;12.83;58.41;99547.47;3144647;28;20060;-60
2022/09/26 05:07:13;;;;;;;19.58;7.03;;;;;;;12.85;58.17;99547.38;3138089;28;20060;-60
2022/09/26 05:08:47;;;;;;;12.07;6.60;;;;;;;12.90;58.32;99561.88;3135643;28;20825;-60
2022/09/26 05:10:19;;;;;;;22.88;7.45;;;;;;;12.89;58.16;99560.16;3135920;28;20061;-60
2022/09/26 05:11:52;;;;;;;18.30;7.20;;;;;;;12.93;58.21;99560.84;3138668;28;20052;-60
2022/09/26 05:13:24;;;;;;;14.68;6.00;;;;;;;12.93;57.88;99561.69;3138484;28;20114;-59
2022/09/26 05:14:56;;;;;;;11.98;6.30;;;;;;;12.92;57.63;99557.38;3137479;28;20045;-59
2022/09/26 05:16:29;;;;;;;18.50;6.13;;;;;;;12.96;57.54;99566.75;3137181;28;20177;-59
2022/09/26 05:18:01;;;;;;;13.07;6.95;;;;;;;12.98;57.72;99570.13;3138447;28;20109;-59
2022/09/26 05:19:34;;;;;;;17.55;6.15;;;;;;;13.00;57.69;99574.41;3138149;28;20057;-59
2022/09/26 05:21:06;;;;;;;12.43;6.10;;;;;;;13.00;57.29;99574.41;3137082;28;20053;-58
2022/09/26 05:22:38;;;;;;;9.15;5.65;;;;;;;12.97;57.32;99573.63;3136796;28;20110;-59
2022/09/26 05:26:19;;;;;;;19.00;6.25;;;;;;;13.02;57.35;99581.22;3137681;28;20572;-60
2022/09/26 05:27:54;;;;;;;15.77;8.90;;;;;;;13.07;57.32;99575.72;3137886;28;20476;-62
2022/09/26 05:29:26;;;;;;;175.80;80.53;;;;;;;13.11;57.25;99572.84;3138168;28;20445;-61
2022/09/26 05:30:58;;;;;;;44.70;25.00;;;;;;;13.16;56.91;99564.69;3137889;28;20558;-61
2022/09/26 05:32:30;;;;;;;19.90;7.80;;;;;;;13.19;57.03;99564.53;3137451;28;20055;-61
2022/09/26 05:34:04;;;;;;;14.00;7.25;;;;;;;13.23;56.79;99562.59;3136472;28;20072;-58
2022/09/26 05:35:36;;;;;;;14.70;5.95;;;;;;;13.24;56.50;99559.03;3136496;28;20049;-58
2022/09/26 05:37:08;;;;;;;13.27;5.17;;;;;;;13.27;56.57;99564.94;3136424;28;20056;-58
2022/09/26 05:38:40;;;;;;;11.30;5.88;;;;;;;13.26;56.66;99567.66;3136392;28;20052;-59
2022/09/26 05:42:11;;;;;;;12.48;5.55;;;;;;;13.33;56.37;99563.72;3136845;28;20060;-61
2022/09/26 05:43:43;;;;;;;14.35;5.03;;;;;;;13.28;56.17;99557.94;3137425;28;20092;-60
2022/09/26 05:45:39;;;;;;;10.77;4.70;;;;;;;13.29;56.34;99557.84;3136798;28;20091;-61
2022/09/26 05:47:18;;;;;;;8.40;4.68;;;;;;;13.27;56.29;99556.25;3131733;28;20545;-61
2022/09/26 05:48:50;;;;;;;12.82;4.57;;;;;;;13.30;56.09;99556.91;3126235;28;20053;-60
2022/09/26 05:50:23;;;;;;;6.95;4.10;;;;;;;13.26;56.32;99544.13;3136196;28;20576;-59
2022/09/26 05:51:58;;;;;;;8.18;4.47;;;;;;;13.36;56.21;99553.09;3137337;28;20067;-60
2022/09/26 05:53:30;;;;;;;10.43;4.75;;;;;;;13.36;56.04;99558.31;3137685;28;20155;-59
2022/09/26 05:55:03;;;;;;;9.65;4.45;;;;;;;13.41;56.13;99554.50;3137814;28;20258;-59
2022/09/26 05:56:36;;;;;;;8.02;4.70;;;;;;;13.43;56.09;99550.00;3136605;28;20512;-59
2022/09/26 05:58:17;;;;;;;;;;;;;;;13.50;56.00;99552.25;3136873;28;20358;-60
2022/09/26 05:59:49;;;;;;;7.43;4.20;;;;;;;13.55;55.81;99539.75;3137092;28;20294;-59
2022/09/26 06:01:21;;;;;;;11.73;5.55;;;;;;;13.59;55.73;99536.81;3137316;28;20493;-59
2022/09/26 06:02:57;;;;;;;10.57;4.57;;;;;;;13.66;55.59;99532.03;3137211;28;20486;-60
2022/09/26 06:04:35;;;;;;;17.67;4.65;;;;;;;13.75;55.69;99533.25;3137061;28;20082;-60
2022/09/26 06:06:09;;;;;;;12.55;5.45;;;;;;;13.84;55.23;99530.91;3137222;28;20086;-60
2022/09/26 06:07:41;;;;;;;13.30;5.10;;;;;;;13.93;55.27;99534.75;3136591;28;20102;-60
2022/09/26 06:09:14;;;;;;;22.15;4.90;;;;;;;14.06;55.19;99527.75;3137494;28;20052;-59
2022/09/26 06:10:46;;;;;;;13.50;5.80;;;;;;;14.18;54.61;99522.69;3137784;28;20109;-60
2022/09/26 06:12:20;;;;;;;13.82;5.03;;;;;;;14.33;54.67;99519.06;3136170;28;20389;-62
2022/09/26 06:13:52;;;;;;;7.95;4.30;;;;;;;14.46;54.39;99512.06;3136398;28;20145;-62
2022/09/26 06:15:24;;;;;;;13.13;4.60;;;;;;;14.61;54.26;99512.03;3137276;28;20060;-60
2022/09/26 06:16:56;;;;;;;24.13;5.40;;;;;;;14.71;54.16;99513.94;3136773;28;20052;-60
2022/09/26 06:18:28;;;;;;;16.25;5.47;;;;;;;14.84;53.83;99510.50;3137451;28;20090;-60
2022/09/26 06:20:00;;;;;;;14.82;4.65;;;;;;;14.91;53.45;99514.41;3136894;28;20083;-62
2022/09/26 06:21:32;;;;;;;22.45;5.38;;;;;;;15.01;53.19;99518.06;3136559;28;20048;-63
2022/09/26 06:23:04;;;;;;;10.45;4.70;;;;;;;15.09;52.82;99517.56;3136261;28;20074;-62
2022/09/26 06:24:36;;;;;;;16.77;4.68;;;;;;;15.16;52.91;99527.50;3136149;28;20472;-60
2022/09/26 06:26:11;;;;;;;15.75;5.43;;;;;;;15.28;52.84;99532.88;3136496;28;20056;-61
2022/09/26 06:27:44;;;;;;;10.55;4.28;;;;;;;15.40;52.69;99527.59;3137462;28;20053;-60
2022/09/26 06:29:17;;;;;;;9.20;4.47;;;;;;;15.57;52.72;99534.31;3136516;28;20106;-61
2022/09/26 06:30:49;;;;;;;20.02;5.00;;;;;;;15.74;52.44;99529.72;3135958;28;20110;-62
2022/09/26 06:32:21;;;;;;;8.80;4.72;;;;;;;15.93;52.22;99535.31;3136074;28;20063;-63
2022/09/26 06:33:54;;;;;;;18.67;5.15;;;;;;;16.17;52.42;99537.13;3136140;28;20044;-61
2022/09/26 06:35:26;;;;;;;8.60;4.70;;;;;;;16.41;52.11;99529.22;3136236;28;20371;-61
2022/09/26 06:36:59;;;;;;;12.27;4.65;;;;;;;16.69;51.57;99534.13;3136737;28;20052;-61
2022/09/26 06:38:31;;;;;;;13.38;5.10;;;;;;;16.96;51.12;99536.50;3136317;28;20052;-61
2022/09/26 06:40:03;;;;;;;9.93;4.55;;;;;;;17.21;50.26;99539.88;3136491;28;20114;-63
2022/09/26 06:41:35;;;;;;;11.07;5.25;;;;;;;17.44;49.67;99549.47;3135935;28;20222;-61
2022/09/26 06:43:08;;;;;;;14.57;5.38;;;;;;;17.71;49.27;99550.91;3136459;28;20053;-61
2022/09/26 06:44:40;;;;;;;;;;;;;;;17.90;48.46;99558.25;3137182;28;20045;-61
2022/09/26 06:46:13;;;;;;;9.95;4.75;;;;;;;18.11;48.67;99555.69;3135713;28;20467;-62
2022/09/26 06:47:46;;;;;;;9.70;5.43;;;;;;;18.37;47.94;99550.94;3136312;28;20083;-62
2022/09/26 06:49:18;;;;;;;12.02;5.05;;;;;;;18.61;47.41;99545.44;3135697;28;20705;-63
2022/09/26 06:50:51;;;;;;;16.40;5.00;;;;;;;18.80;46.74;99553.53;3135785;28;20196;-65
2022/09/26 06:52:23;;;;;;;;;;;;;;;19.00;46.10;99561.59;3136563;28;20143;-60
2022/09/26 06:53:55;;;;;;;9.48;4.50;;;;;;;19.12;46.00;99562.38;3136297;28;19924;-61
2022/09/26 06:55:28;;;;;;;11.32;5.20;;;;;;;19.30;45.72;99566.91;3138404;28;20048;-62
2022/09/26 06:57:00;;;;;;;8.13;4.72;;;;;;;19.48;45.13;99572.41;3135845;28;20049;-61
2022/09/26 06:58:34;;;;;;;17.98;4.68;;;;;;;19.68;44.93;99570.72;3139804;28;20062;-61
2022/09/26 07:00:07;;;;;;;7.70;3.97;;;;;;;19.76;44.06;99573.56;3135884;28;20083;-61
2022/09/26 07:01:40;;;;;;;6.95;3.58;;;;;;;19.79;43.41;99567.16;3135746;28;20098;-62
2022/09/26 07:03:14;;;;;;;7.27;3.13;;;;;;;19.93;43.39;99565.94;3136689;28;20048;-64
2022/09/26 07:04:46;;;;;;;7.35;3.35;;;;;;;20.12;42.97;99562.53;3136735;28;20521;-64
2022/09/26 07:06:18;;;;;;;6.82;3.72;;;;;;;20.25;42.39;99567.56;3136893;28;20114;-64
2022/09/26 07:07:51;;;;;;;12.77;3.08;;;;;;;20.43;42.21;99563.25;3136905;28;20517;-64
2022/09/26 07:09:24;;;;;;;5.72;3.10;;;;;;;20.63;41.63;99562.31;3135986;28;20201;-64
2022/09/26 07:11:00;;;;;;;6.32;3.13;;;;;;;20.85;41.36;99561.22;3123218;28;20061;-61
2022/09/26 07:12:33;;;;;;;10.15;5.72;;;;;;;21.02;40.87;99543.75;3135357;28;20599;-65
2022/09/26 07:14:07;;;;;;;6.65;3.33;;;;;;;21.19;40.49;99542.19;3136233;28;20114;-64
2022/09/26 07:15:39;;;;;;;6.75;4.10;;;;;;;21.32;40.20;99539.22;3137417;28;20060;-65
2022/09/26 07:17:15;;;;;;;9.75;3.92;;;;;;;21.41;39.91;99535.72;3136555;28;20060;-66
2022/09/26 07:18:47;;;;;;;7.57;2.90;;;;;;;21.48;39.64;99531.53;3135064;28;20079;-66
2022/09/26 07:20:20;;;;;;;5.43;3.58;;;;;;;21.54;39.44;99527.47;3135620;28;20109;-66
2022/09/26 07:21:53;;;;;;;5.05;3.63;;;;;;;21.75;39.17;99528.06;3135857;28;20044;-65
2022/09/26 07:23:25;;;;;;;6.93;3.38;;;;;;;22.00;38.37;99521.19;3136571;28;20048;-64
2022/09/26 07:24:58;;;;;;;6.30;4.63;;;;;;;22.30;38.42;99523.69;3136521;28;20053;-66
2022/09/26 07:26:30;;;;;;;9.40;3.72;;;;;;;22.69;37.76;99524.22;3135927;28;20070;-66
2022/09/26 07:28:02;;;;;;;10.20;3.30;;;;;;;23.04;36.87;99526.00;3135701;28;20171;-64
2022/09/26 07:29:35;;;;;;;8.48;3.75;;;;;;;23.44;36.14;99540.50;3135851;28;20052;-65
2022/09/26 07:31:07;;;;;;;9.95;3.70;;;;;;;23.58;34.89;99533.75;3136435;28;20052;-62